Time;durP1;ratioP1;P1;durP2;ratioP2;P2;SDS_P1;SDS_P2;PMS_P1;PMS_P2;Temp;Humidity;BMP_temperature;BMP_pressure;BME280_temperature;BME280_humidity;BME280_pressure;Samples;Min_cycle;Max_cycle;Signal;HPM_P1;HPM_P2
2021/08/15 00:00:38;;;;;;;17.90;4.57;;;;;;;;;;4943133;28;20089;-84
2021/08/15 00:03:14;;;;;;;20.40;4.72;;;;;;;;;;4943963;29;20043;-85
2021/08/15 00:05:41;;;;;;;18.35;4.93;;;;;;;;;;4935922;29;20043;-85
2021/08/15 00:08:09;;;;;;;13.27;4.50;;;;;;;;;;4928215;29;20043;-85
2021/08/15 00:10:38;;;;;;;17.85;4.45;;;;;;;;;;4930332;28;20488;-86
2021/08/15 00:13:06;;;;;;;18.58;5.32;;;;;;;;;;4934496;28;20567;-85
2021/08/15 00:15:33;;;;;;;14.25;4.82;;;;;;;;;;4941148;29;20131;-85
2021/08/15 00:18:01;;;;;;;16.98;4.85;;;;;;;;;;4953402;29;20048;-85
2021/08/15 00:20:28;;;;;;;17.08;4.57;;;;;;;;;;4952672;29;20147;-85
2021/08/15 00:22:57;;;;;;;23.05;5.60;;;;;;;;;;4956361;28;20058;-85
2021/08/15 00:25:24;;;;;;;17.73;4.85;;;;;;;;;;4952915;28;20811;-85
2021/08/15 00:27:51;;;;;;;24.35;4.78;;;;;;;;;;4952833;29;20138;-84
2021/08/15 00:30:19;;;;;;;15.77;5.22;;;;;;;;;;4953583;28;20047;-85
2021/08/15 00:32:47;;;;;;;20.98;6.25;;;;;;;;;;4948323;29;20047;-85
2021/08/15 00:35:14;;;;;;;23.55;5.70;;;;;;;;;;4952876;29;20092;-85
2021/08/15 00:37:42;;;;;;;20.50;4.90;;;;;;;;;;4937339;29;20082;-84
2021/08/15 00:40:10;;;;;;;24.23;6.13;;;;;;;;;;4944506;29;20051;-84
2021/08/15 00:42:37;;;;;;;14.32;5.50;;;;;;;;;;4934881;29;20159;-84
2021/08/15 00:45:04;;;;;;;25.77;6.25;;;;;;;;;;4936728;29;20082;-84
2021/08/15 00:47:32;;;;;;;27.35;5.47;;;;;;;;;;4953323;28;20102;-85
2021/08/15 00:50:00;;;;;;;20.77;6.30;;;;;;;;;;4952978;29;20140;-85
2021/08/15 00:52:28;;;;;;;16.85;4.80;;;;;;;;;;4935199;28;20153;-85
2021/08/15 00:54:56;;;;;;;22.85;5.00;;;;;;;;;;4937404;29;20071;-84
2021/08/15 00:57:42;;;;;;;23.83;5.75;;;;;;;;;;4952748;29;20085;-84
2021/08/15 01:00:11;;;;;;;22.95;5.38;;;;;;;;;;4939783;29;20126;-84
2021/08/15 01:02:38;;;;;;;22.65;5.85;;;;;;;;;;4947492;28;20142;-84
2021/08/15 01:05:06;;;;;;;20.27;5.68;;;;;;;;;;4952735;28;20051;-85
2021/08/15 01:07:34;;;;;;;16.90;5.60;;;;;;;;;;4937378;29;20557;-85
2021/08/15 01:10:01;;;;;;;19.38;5.85;;;;;;;;;;4953134;28;20465;-86
2021/08/15 01:12:28;;;;;;;19.80;5.90;;;;;;;;;;4951961;28;20143;-85
2021/08/15 01:14:56;;;;;;;24.95;6.10;;;;;;;;;;4934987;28;20480;-86
2021/08/15 01:17:25;;;;;;;25.58;5.45;;;;;;;;;;4943171;29;20059;-86
2021/08/15 01:19:59;;;;;;;21.42;6.68;;;;;;;;;;4953024;29;20123;-84
2021/08/15 01:22:27;;;;;;;37.08;6.82;;;;;;;;;;4951376;28;20057;-84
2021/08/15 01:24:56;;;;;;;27.50;6.35;;;;;;;;;;4952542;29;20121;-84
2021/08/15 01:27:24;;;;;;;18.85;5.78;;;;;;;;;;4936438;29;20476;-84
2021/08/15 01:29:52;;;;;;;25.70;5.93;;;;;;;;;;4937755;29;20089;-84
2021/08/15 01:32:38;;;;;;;18.60;5.82;;;;;;;;;;4952810;28;20512;-84
2021/08/15 01:35:06;;;;;;;23.17;5.82;;;;;;;;;;4942092;28;20047;-84
2021/08/15 01:37:33;;;;;;;14.38;5.43;;;;;;;;;;4956439;28;20039;-84
2021/08/15 01:40:03;;;;;;;24.77;5.28;;;;;;;;;;4955862;28;20127;-84
2021/08/15 01:42:38;;;;;;;24.27;6.40;;;;;;;;;;4939156;29;20090;-84
2021/08/15 01:45:12;;;;;;;17.05;5.90;;;;;;;;;;4963840;28;20411;-84
2021/08/15 01:47:39;;;;;;;22.55;5.65;;;;;;;;;;4956090;29;20102;-83
2021/08/15 01:50:07;;;;;;;24.42;6.10;;;;;;;;;;4958534;28;20138;-85
2021/08/15 01:52:34;;;;;;;23.63;6.22;;;;;;;;;;4955009;28;20663;-84
2021/08/15 01:55:07;;;;;;;19.02;6.03;;;;;;;;;;4944222;29;20074;-83
2021/08/15 01:57:35;;;;;;;24.30;5.05;;;;;;;;;;4951022;29;20079;-84
2021/08/15 02:00:02;;;;;;;22.90;6.25;;;;;;;;;;4940005;28;20094;-83
2021/08/15 02:02:29;;;;;;;17.73;6.20;;;;;;;;;;4942968;29;20138;-84
2021/08/15 02:04:56;;;;;;;24.40;5.60;;;;;;;;;;4955218;29;20539;-84
2021/08/15 02:07:25;;;;;;;19.20;6.03;;;;;;;;;;4961657;28;20051;-84
2021/08/15 02:09:52;;;;;;;18.33;6.82;;;;;;;;;;4955515;28;20054;-84
2021/08/15 02:14:48;;;;;;;21.25;5.70;;;;;;;;;;4972252;28;20520;-85
2021/08/15 02:17:15;;;;;;;20.80;6.22;;;;;;;;;;4963647;28;20055;-85
2021/08/15 02:19:42;;;;;;;18.77;6.15;;;;;;;;;;4966071;28;20423;-86
2021/08/15 02:22:11;;;;;;;13.98;5.10;;;;;;;;;;4946112;29;20510;-85
2021/08/15 02:24:38;;;;;;;16.38;5.75;;;;;;;;;;4961444;28;20133;-85
2021/08/15 02:27:05;;;;;;;25.75;6.95;;;;;;;;;;4970661;28;20126;-85
2021/08/15 02:29:32;;;;;;;18.52;5.55;;;;;;;;;;4963367;28;20055;-85
2021/08/15 02:31:59;;;;;;;21.42;6.10;;;;;;;;;;4960831;28;20464;-85
2021/08/15 02:34:28;;;;;;;26.92;7.40;;;;;;;;;;4954217;28;20694;-84
2021/08/15 02:36:55;;;;;;;20.48;5.75;;;;;;;;;;4957236;28;20075;-84
2021/08/15 02:39:22;;;;;;;18.90;5.65;;;;;;;;;;4956750;28;20050;-84
2021/08/15 02:41:51;;;;;;;25.98;6.30;;;;;;;;;;4973087;28;20127;-84
2021/08/15 02:44:18;;;;;;;14.80;5.88;;;;;;;;;;4951231;28;20078;-85
2021/08/15 02:46:46;;;;;;;16.15;5.65;;;;;;;;;;4946804;29;20142;-85
2021/08/15 02:49:13;;;;;;;28.83;6.18;;;;;;;;;;4966015;28;20078;-85
2021/08/15 02:51:40;;;;;;;21.90;5.88;;;;;;;;;;4952577;28;20444;-85
2021/08/15 02:54:07;;;;;;;19.65;5.57;;;;;;;;;;4956590;28;20125;-84
2021/08/15 02:56:34;;;;;;;25.60;6.03;;;;;;;;;;4950979;28;20046;-85
2021/08/15 02:59:02;;;;;;;19.15;5.80;;;;;;;;;;4949295;28;20078;-85
2021/08/15 03:01:29;;;;;;;25.33;5.90;;;;;;;;;;4955554;28;20752;-85
2021/08/15 03:04:02;;;;;;;17.63;5.70;;;;;;;;;;4951050;28;20050;-85
2021/08/15 03:06:29;;;;;;;33.00;6.47;;;;;;;;;;4953027;28;20078;-86
2021/08/15 03:08:56;;;;;;;21.00;6.20;;;;;;;;;;4953477;28;20097;-85
2021/08/15 03:11:29;;;;;;;21.30;5.72;;;;;;;;;;4956683;28;20138;-85
2021/08/15 03:13:56;;;;;;;28.85;5.90;;;;;;;;;;4955455;28;20154;-85
2021/08/15 03:16:23;;;;;;;19.98;5.90;;;;;;;;;;4951582;28;20063;-85
2021/08/15 03:18:50;;;;;;;24.05;6.93;;;;;;;;;;4940779;28;20106;-84
2021/08/15 03:21:19;;;;;;;15.10;5.13;;;;;;;;;;4951757;28;20764;-86
2021/08/15 03:23:46;;;;;;;24.40;7.10;;;;;;;;;;4954291;28;20133;-85
2021/08/15 03:26:13;;;;;;;17.48;6.07;;;;;;;;;;4966908;28;20091;-85
2021/08/15 03:28:43;;;;;;;20.02;5.88;;;;;;;;;;4964815;28;20571;-85
2021/08/15 03:31:10;;;;;;;25.63;7.15;;;;;;;;;;4965939;28;20142;-85
2021/08/15 03:33:37;;;;;;;17.75;6.07;;;;;;;;;;4965702;28;20051;-86
2021/08/15 03:36:05;;;;;;;16.05;5.90;;;;;;;;;;4959691;28;20741;-85
2021/08/15 03:38:32;;;;;;;19.92;5.75;;;;;;;;;;4947961;28;20134;-86
2021/08/15 03:40:59;;;;;;;20.40;6.05;;;;;;;;;;4950703;28;20082;-85
2021/08/15 03:43:26;;;;;;;19.25;5.32;;;;;;;;;;4969255;28;20146;-84
2021/08/15 03:45:53;;;;;;;27.00;6.43;;;;;;;;;;4950079;28;20066;-84
2021/08/15 03:48:22;;;;;;;18.63;5.82;;;;;;;;;;4947761;28;20393;-85
2021/08/15 03:50:53;;;;;;;19.30;7.13;;;;;;;;;;4947846;28;20138;-85
2021/08/15 03:53:20;;;;;;;21.70;6.97;;;;;;;;;;4953676;28;20158;-86
2021/08/15 03:55:49;;;;;;;20.17;5.88;;;;;;;;;;4947347;28;20965;-85
2021/08/15 03:58:16;;;;;;;27.27;7.07;;;;;;;;;;4952801;28;20121;-85
2021/08/15 04:00:50;;;;;;;26.42;6.55;;;;;;;;;;4949115;28;20059;-85
2021/08/15 04:03:34;;;;;;;27.25;6.35;;;;;;;;;;4968521;28;20065;-85
2021/08/15 04:06:07;;;;;;;18.15;5.82;;;;;;;;;;4952190;28;20715;-85
2021/08/15 04:08:35;;;;;;;23.42;6.22;;;;;;;;;;4967975;28;20062;-86
2021/08/15 04:11:02;;;;;;;29.35;6.07;;;;;;;;;;4953003;28;20140;-85
2021/08/15 04:13:29;;;;;;;21.92;6.57;;;;;;;;;;4964656;28;20086;-85
2021/08/15 04:15:56;;;;;;;22.00;6.20;;;;;;;;;;4949108;28;20088;-85
2021/08/15 04:18:24;;;;;;;17.73;6.00;;;;;;;;;;4966857;28;20086;-85
2021/08/15 04:20:53;;;;;;;19.35;6.28;;;;;;;;;;4941879;28;20074;-85
2021/08/15 04:23:20;;;;;;;24.92;6.90;;;;;;;;;;4963611;28;20137;-86
2021/08/15 04:25:47;;;;;;;18.42;6.32;;;;;;;;;;4968115;28;20078;-88
2021/08/15 04:28:14;;;;;;;23.85;6.43;;;;;;;;;;4948764;28;20137;-85
2021/08/15 04:30:41;;;;;;;22.52;6.10;;;;;;;;;;4955666;28;20130;-85
2021/08/15 04:33:16;;;;;;;21.50;6.93;;;;;;;;;;4949783;28;20050;-87
2021/08/15 04:35:47;;;;;;;23.05;6.03;;;;;;;;;;4958228;28;20736;-89
2021/08/15 04:38:20;;;;;;;18.05;5.90;;;;;;;;;;4950656;28;20099;-85
2021/08/15 04:40:50;;;;;;;16.52;5.75;;;;;;;;;;4944957;28;20043;-86
2021/08/15 04:43:21;;;;;;;19.55;6.47;;;;;;;;;;4940379;28;20051;-87
2021/08/15 04:45:48;;;;;;;25.98;6.40;;;;;;;;;;4946582;28;20902;-84
2021/08/15 04:48:17;;;;;;;23.92;6.13;;;;;;;;;;4956681;28;20514;-86
2021/08/15 04:50:45;;;;;;;16.73;5.88;;;;;;;;;;4951576;28;20146;-84
2021/08/15 04:53:15;;;;;;;30.58;7.15;;;;;;;;;;4944485;28;20177;-84
2021/08/15 04:55:42;;;;;;;19.33;5.75;;;;;;;;;;4955110;28;20089;-84
2021/08/15 04:58:18;;;;;;;16.05;5.10;;;;;;;;;;4969038;28;20126;-86
2021/08/15 05:00:45;;;;;;;18.00;5.72;;;;;;;;;;4969589;28;20142;-86
2021/08/15 05:03:16;;;;;;;15.60;5.50;;;;;;;;;;4944102;28;20536;-85
2021/08/15 05:05:44;;;;;;;20.90;5.93;;;;;;;;;;4950825;29;20118;-87
2021/08/15 05:08:11;;;;;;;23.73;5.45;;;;;;;;;;4952397;28;20055;-85
2021/08/15 05:10:43;;;;;;;22.17;6.00;;;;;;;;;;4946462;28;20141;-86
2021/08/15 05:13:13;;;;;;;20.95;5.93;;;;;;;;;;4964337;28;20126;-85
2021/08/15 05:15:41;;;;;;;30.90;5.93;;;;;;;;;;4956312;28;20097;-85
2021/08/15 05:18:08;;;;;;;17.33;5.97;;;;;;;;;;4955263;28;20083;-85
2021/08/15 05:20:36;;;;;;;17.02;6.03;;;;;;;;;;4950650;28;20551;-85
2021/08/15 05:23:05;;;;;;;19.35;5.72;;;;;;;;;;4970347;28;20074;-85
2021/08/15 05:25:33;;;;;;;22.17;4.70;;;;;;;;;;4968735;28;20074;-86
2021/08/15 05:28:03;;;;;;;12.77;4.50;;;;;;;;;;4952470;29;20126;-86
2021/08/15 05:30:31;;;;;;;13.95;4.50;;;;;;;;;;4958670;28;20055;-85
2021/08/15 05:32:58;;;;;;;15.73;4.60;;;;;;;;;;4955504;28;20085;-85
2021/08/15 05:35:25;;;;;;;17.67;4.97;;;;;;;;;;4957693;28;20093;-84
2021/08/15 05:37:52;;;;;;;11.98;4.97;;;;;;;;;;4958354;28;20518;-84
2021/08/15 05:40:20;;;;;;;19.83;4.15;;;;;;;;;;4972185;28;20055;-85
2021/08/15 05:42:48;;;;;;;21.85;4.55;;;;;;;;;;4957148;28;20074;-84
2021/08/15 05:45:17;;;;;;;9.65;4.00;;;;;;;;;;4950385;28;20455;-84
2021/08/15 05:47:44;;;;;;;14.00;4.88;;;;;;;;;;4970365;28;20086;-84
2021/08/15 05:50:11;;;;;;;8.88;4.15;;;;;;;;;;4973770;28;20054;-85
2021/08/15 05:52:38;;;;;;;15.93;4.90;;;;;;;;;;4944973;29;20162;-85
2021/08/15 05:55:07;;;;;;;13.55;5.20;;;;;;;;;;4971395;28;20138;-85
2021/08/15 05:57:34;;;;;;;14.63;4.43;;;;;;;;;;4955992;28;20456;-86
2021/08/15 06:00:06;;;;;;;18.90;4.07;;;;;;;;;;4949287;28;20142;-84
2021/08/15 06:02:33;;;;;;;11.70;4.70;;;;;;;;;;4954129;28;20122;-84
2021/08/15 06:05:08;;;;;;;12.23;4.13;;;;;;;;;;4953065;28;20082;-84
2021/08/15 06:07:35;;;;;;;12.68;4.57;;;;;;;;;;4956591;28;20078;-84
2021/08/15 06:10:03;;;;;;;9.63;3.95;;;;;;;;;;4950667;28;20042;-84
2021/08/15 06:12:30;;;;;;;9.13;3.90;;;;;;;;;;4954868;28;20774;-84
2021/08/15 06:14:58;;;;;;;9.98;5.20;;;;;;;;;;4956358;28;20081;-85
2021/08/15 06:17:26;;;;;;;10.50;4.18;;;;;;;;;;4956353;28;20491;-85
2021/08/15 06:19:53;;;;;;;9.00;4.32;;;;;;;;;;4946340;28;20851;-84
2021/08/15 06:22:20;;;;;;;16.40;5.18;;;;;;;;;;4967836;28;20081;-84
2021/08/15 06:24:47;;;;;;;14.77;4.45;;;;;;;;;;4951247;28;20074;-83
2021/08/15 06:27:19;;;;;;;14.32;4.63;;;;;;;;;;4956538;28;20125;-84
2021/08/15 06:29:46;;;;;;;16.45;4.50;;;;;;;;;;4955248;28;20721;-84
2021/08/15 06:32:13;;;;;;;11.95;4.20;;;;;;;;;;4956662;28;20492;-84
2021/08/15 06:34:40;;;;;;;13.77;4.40;;;;;;;;;;4954791;28;20126;-85
2021/08/15 06:37:09;;;;;;;12.27;4.93;;;;;;;;;;4973875;28;20055;-85
2021/08/15 06:39:38;;;;;;;14.65;4.03;;;;;;;;;;4945056;28;20126;-84
2021/08/15 06:42:05;;;;;;;17.77;5.30;;;;;;;;;;4968252;28;20138;-84
2021/08/15 06:44:37;;;;;;;15.35;4.20;;;;;;;;;;4950558;28;20130;-85
2021/08/15 06:47:04;;;;;;;13.38;4.35;;;;;;;;;;4966075;28;20151;-85
2021/08/15 06:49:32;;;;;;;9.75;4.15;;;;;;;;;;4951435;28;20162;-84
2021/08/15 06:51:59;;;;;;;6.90;3.42;;;;;;;;;;4962391;28;20082;-84
2021/08/15 06:54:28;;;;;;;13.02;3.85;;;;;;;;;;4954341;28;20051;-83
2021/08/15 06:56:55;;;;;;;11.68;4.32;;;;;;;;;;4954847;28;20070;-84
2021/08/15 06:59:22;;;;;;;9.88;4.00;;;;;;;;;;4956092;28;20420;-84
2021/08/15 07:01:50;;;;;;;7.47;3.95;;;;;;;;;;4953936;28;20046;-84
2021/08/15 07:04:18;;;;;;;7.93;3.65;;;;;;;;;;4947178;28;20055;-84
2021/08/15 07:06:50;;;;;;;12.75;3.92;;;;;;;;;;4951375;28;20125;-85
2021/08/15 07:09:17;;;;;;;14.25;4.00;;;;;;;;;;4953344;28;20082;-85
2021/08/15 07:11:50;;;;;;;10.90;3.60;;;;;;;;;;4952936;29;20106;-84
2021/08/15 07:14:17;;;;;;;6.65;3.88;;;;;;;;;;4950065;28;20055;-84
2021/08/15 07:16:45;;;;;;;5.55;2.75;;;;;;;;;;4944398;28;20084;-85
2021/08/15 07:19:12;;;;;;;10.13;2.95;;;;;;;;;;4965625;28;20563;-85
2021/08/15 07:21:39;;;;;;;20.48;3.65;;;;;;;;;;4953079;29;20046;-86
2021/08/15 07:24:07;;;;;;;8.20;3.15;;;;;;;;;;4968623;28;20126;-84
2021/08/15 07:26:40;;;;;;;7.88;2.40;;;;;;;;;;4964428;28;20102;-84
2021/08/15 07:29:07;;;;;;;11.25;3.50;;;;;;;;;;4965376;28;20439;-84
2021/08/15 07:31:36;;;;;;;7.25;2.58;;;;;;;;;;4957383;28;20063;-84
2021/08/15 07:34:04;;;;;;;7.22;2.72;;;;;;;;;;4942764;29;20098;-86
2021/08/15 07:36:31;;;;;;;12.82;2.97;;;;;;;;;;4949852;28;20709;-84
2021/08/15 07:38:58;;;;;;;9.05;2.72;;;;;;;;;;4952742;28;20074;-85
2021/08/15 07:41:25;;;;;;;9.27;2.75;;;;;;;;;;4965389;28;20079;-84
2021/08/15 07:43:52;;;;;;;8.88;3.15;;;;;;;;;;4952654;28;20050;-84
2021/08/15 07:46:21;;;;;;;7.03;2.47;;;;;;;;;;4955354;28;20082;-86
2021/08/15 07:48:49;;;;;;;9.50;2.83;;;;;;;;;;4952353;29;20870;-86
2021/08/15 07:51:17;;;;;;;4.18;2.55;;;;;;;;;;4953500;28;20101;-85
2021/08/15 07:53:47;;;;;;;8.80;3.70;;;;;;;;;;4967974;28;20073;-86
2021/08/15 07:56:23;;;;;;;6.22;2.70;;;;;;;;;;4949728;28;20093;-86
2021/08/15 07:58:51;;;;;;;4.57;2.65;;;;;;;;;;4963700;28;20094;-86
2021/08/15 08:01:18;;;;;;;7.78;3.13;;;;;;;;;;4956018;28;20130;-85
2021/08/15 08:03:45;;;;;;;7.05;2.50;;;;;;;;;;4966718;28;20125;-84
2021/08/15 08:06:15;;;;;;;9.20;2.92;;;;;;;;;;4969658;28;20110;-86
2021/08/15 08:08:42;;;;;;;6.35;2.55;;;;;;;;;;4949912;28;20090;-86
2021/08/15 08:11:19;;;;;;;5.18;2.42;;;;;;;;;;4949311;28;20110;-84
2021/08/15 08:13:47;;;;;;;8.02;2.83;;;;;;;;;;4944397;28;20093;-83
2021/08/15 08:16:14;;;;;;;6.53;2.80;;;;;;;;;;4949600;28;20101;-82
2021/08/15 08:18:43;;;;;;;4.57;2.38;;;;;;;;;;4966039;28;20043;-83
2021/08/15 08:21:12;;;;;;;6.15;2.55;;;;;;;;;;4941741;28;20111;-84
2021/08/15 08:23:41;;;;;;;8.10;2.63;;;;;;;;;;4960931;28;20484;-83
2021/08/15 08:26:08;;;;;;;5.03;2.38;;;;;;;;;;4950819;28;20078;-83
2021/08/15 08:28:35;;;;;;;6.32;2.80;;;;;;;;;;4972714;28;20051;-83
2021/08/15 08:31:03;;;;;;;8.27;3.75;;;;;;;;;;4953775;28;20113;-85
2021/08/15 08:33:48;;;;;;;9.30;2.58;;;;;;;;;;4947872;28;20070;-84
2021/08/15 08:36:15;;;;;;;9.88;2.70;;;;;;;;;;4965603;28;20089;-85
2021/08/15 08:38:42;;;;;;;6.05;2.90;;;;;;;;;;4972474;28;20070;-87
2021/08/15 08:41:11;;;;;;;5.32;2.85;;;;;;;;;;4968762;28;20105;-85
2021/08/15 08:43:40;;;;;;;5.55;2.30;;;;;;;;;;4947888;28;20042;-85
2021/08/15 08:46:19;;;;;;;12.38;2.67;;;;;;;;;;4978230;28;20082;-84
2021/08/15 08:48:46;;;;;;;5.93;2.30;;;;;;;;;;4946984;28;20055;-84
2021/08/15 08:51:13;;;;;;;10.18;2.80;;;;;;;;;;4954926;28;20059;-84
2021/08/15 08:53:42;;;;;;;14.77;3.28;;;;;;;;;;4953620;28;20098;-82
2021/08/15 08:56:09;;;;;;;10.90;2.42;;;;;;;;;;4968723;28;20077;-86
2021/08/15 08:58:36;;;;;;;5.05;2.30;;;;;;;;;;4952211;28;20685;-87
2021/08/15 09:01:14;;;;;;;4.25;1.55;;;;;;;;;;4955969;28;20074;-86
2021/08/15 09:03:53;;;;;;;2.65;1.95;;;;;;;;;;4946893;28;20054;-88
2021/08/15 09:06:38;;;;;;;5.95;2.15;;;;;;;;;;4942417;28;20059;-84
2021/08/15 09:09:11;;;;;;;4.25;2.15;;;;;;;;;;4952355;28;20129;-85
2021/08/15 09:11:41;;;;;;;6.60;2.53;;;;;;;;;;4950469;28;20081;-83
2021/08/15 09:14:12;;;;;;;16.13;10.27;;;;;;;;;;4963923;28;20130;-83
2021/08/15 09:17:08;;;;;;;17.60;8.18;;;;;;;;;;4949493;28;20130;-87
2021/08/15 09:19:47;;;;;;;7.03;4.13;;;;;;;;;;4944860;28;20097;-86
2021/08/15 09:22:19;;;;;;;12.27;8.65;;;;;;;;;;4967358;28;20078;-86
2021/08/15 09:24:46;;;;;;;10.10;6.40;;;;;;;;;;4964792;28;20496;-86
2021/08/15 09:27:33;;;;;;;8.80;5.80;;;;;;;;;;4953845;28;20806;-85
2021/08/15 09:30:10;;;;;;;39.47;20.98;;;;;;;;;;4935473;29;20456;-86
2021/08/15 09:32:42;;;;;;;24.95;13.20;;;;;;;;;;4945243;28;20086;-87
2021/08/15 09:35:09;;;;;;;16.92;7.07;;;;;;;;;;4967637;28;20078;-86
2021/08/15 09:37:37;;;;;;;4.75;3.20;;;;;;;;;;4966579;28;20655;-86
2021/08/15 09:40:24;;;;;;;6.90;3.28;;;;;;;;;;4951598;28;20130;-86
2021/08/15 09:42:54;;;;;;;6.88;4.40;;;;;;;;;;4951302;28;20575;-86
2021/08/15 09:45:41;;;;;;;7.68;3.25;;;;;;;;;;4946919;28;20082;-86
2021/08/15 09:48:27;;;;;;;9.70;3.95;;;;;;;;;;4964014;28;20082;-86
2021/08/15 09:51:02;;;;;;;13.30;4.95;;;;;;;;;;4941418;29;20070;-86
2021/08/15 09:53:38;;;;;;;10.82;5.72;;;;;;;;;;4948332;28;20055;-86
2021/08/15 09:56:06;;;;;;;7.70;3.97;;;;;;;;;;4965916;28;20093;-86
2021/08/15 09:58:44;;;;;;;26.23;12.77;;;;;;;;;;4975101;28;20058;-87
2021/08/15 10:01:11;;;;;;;15.98;10.57;;;;;;;;;;4954408;28;20065;-87
2021/08/15 10:03:43;;;;;;;17.08;7.22;;;;;;;;;;4952578;28;20053;-87
2021/08/15 10:06:14;;;;;;;24.40;10.27;;;;;;;;;;4949844;28;20051;-87
2021/08/15 10:08:41;;;;;;;14.50;6.15;;;;;;;;;;4967583;28;20412;-87
2021/08/15 10:11:25;;;;;;;13.32;6.53;;;;;;;;;;4957657;28;20559;-87
2021/08/15 10:13:52;;;;;;;12.63;5.82;;;;;;;;;;4960025;28;20051;-87
2021/08/15 10:16:22;;;;;;;15.40;5.70;;;;;;;;;;4946846;28;20052;-87
2021/08/15 10:18:52;;;;;;;21.90;7.85;;;;;;;;;;4951677;29;20051;-87
2021/08/15 10:21:37;;;;;;;14.10;5.95;;;;;;;;;;4968388;28;20154;-88
2021/08/15 10:24:04;;;;;;;;;;;;;;;;;;4954268;28;20078;-88
2021/08/15 10:26:48;;;;;;;16.85;6.90;;;;;;;;;;4957238;28;20379;-87
2021/08/15 10:29:36;;;;;;;16.20;7.07;;;;;;;;;;4956586;28;20050;-87
2021/08/15 10:32:07;;;;;;;11.70;5.93;;;;;;;;;;4952134;28;20070;-87
2021/08/15 10:34:54;;;;;;;22.05;6.82;;;;;;;;;;4948451;28;20437;-87
2021/08/15 10:37:28;;;;;;;17.70;6.72;;;;;;;;;;4955599;28;20046;-87
2021/08/15 10:40:02;;;;;;;14.00;5.38;;;;;;;;;;4973903;28;20078;-86
2021/08/15 10:42:38;;;;;;;20.40;6.28;;;;;;;;;;4954928;28;20250;-87
2021/08/15 10:45:22;;;;;;;18.73;6.10;;;;;;;;;;4955669;28;20054;-86
2021/08/15 10:48:08;;;;;;;17.75;6.13;;;;;;;;;;4970283;28;20047;-87
2021/08/15 10:50:47;;;;;;;16.08;6.63;;;;;;;;;;4966380;28;20586;-87
2021/08/15 10:53:27;;;;;;;16.08;7.45;;;;;;;;;;4965201;28;20062;-86
2021/08/15 10:56:04;;;;;;;16.45;6.93;;;;;;;;;;4947870;29;20055;-87
2021/08/15 10:58:38;;;;;;;15.18;6.88;;;;;;;;;;4954041;28;20503;-86
2021/08/15 11:01:20;;;;;;;16.83;8.05;;;;;;;;;;4940750;29;20050;-87
2021/08/15 11:03:47;;;;;;;18.38;6.75;;;;;;;;;;4947953;28;20051;-87
2021/08/15 11:06:45;;;;;;;15.98;5.78;;;;;;;;;;4955045;28;20121;-87
2021/08/15 11:09:12;;;;;;;16.75;6.38;;;;;;;;;;4950911;28;20054;-87
2021/08/15 11:11:58;;;;;;;20.10;7.22;;;;;;;;;;4956827;28;20051;-86
2021/08/15 11:14:26;;;;;;;18.80;7.18;;;;;;;;;;4966853;28;20048;-86
2021/08/15 11:16:55;;;;;;;24.35;7.47;;;;;;;;;;4973178;28;20058;-87
2021/08/15 11:19:22;;;;;;;20.75;7.18;;;;;;;;;;4966039;28;20695;-87
2021/08/15 11:22:05;;;;;;;21.70;8.18;;;;;;;;;;4960400;28;20057;-86
2021/08/15 11:24:37;;;;;;;17.00;7.32;;;;;;;;;;4946931;28;20153;-86
2021/08/15 11:27:05;;;;;;;24.02;7.88;;;;;;;;;;4948119;28;20145;-86
2021/08/15 11:29:37;;;;;;;20.30;7.05;;;;;;;;;;4939931;28;20050;-86
2021/08/15 11:32:04;;;;;;;24.08;7.65;;;;;;;;;;4939831;28;20845;-86
2021/08/15 11:34:37;;;;;;;18.88;8.43;;;;;;;;;;4947585;28;20876;-87
2021/08/15 11:37:06;;;;;;;19.42;6.93;;;;;;;;;;4946227;28;20074;-86
2021/08/15 11:39:37;;;;;;;13.60;7.30;;;;;;;;;;4945083;28;20047;-86
2021/08/15 11:42:06;;;;;;;21.80;7.32;;;;;;;;;;4945022;29;20043;-87
2021/08/15 11:44:52;;;;;;;18.60;7.43;;;;;;;;;;4972720;28;20786;-86
2021/08/15 11:47:23;;;;;;;17.00;7.18;;;;;;;;;;4954747;28;20488;-87
2021/08/15 11:49:59;;;;;;;14.90;7.22;;;;;;;;;;4956201;28;20551;-87
2021/08/15 11:52:35;;;;;;;20.75;7.47;;;;;;;;;;4968795;28;20390;-86
2021/08/15 11:55:09;;;;;;;13.27;6.80;;;;;;;;;;4946233;28;20078;-87
2021/08/15 11:57:46;;;;;;;21.58;6.60;;;;;;;;;;4947925;28;20093;-86
2021/08/15 12:00:14;;;;;;;18.08;7.38;;;;;;;;;;4956319;28;20141;-86
2021/08/15 12:03:06;;;;;;;16.48;7.28;;;;;;;;;;4936013;29;20749;-86
2021/08/15 12:05:36;;;;;;;18.95;6.70;;;;;;;;;;4968270;28;20133;-87
2021/08/15 12:08:04;;;;;;;13.65;6.93;;;;;;;;;;4950460;28;20070;-87
2021/08/15 12:10:36;;;;;;;20.35;7.30;;;;;;;;;;4955743;28;20058;-87
2021/08/15 12:13:10;;;;;;;20.52;7.45;;;;;;;;;;4950448;28;20109;-86
2021/08/15 12:15:37;;;;;;;14.65;6.68;;;;;;;;;;4949963;28;20135;-87
2021/08/15 12:18:04;;;;;;;18.15;6.05;;;;;;;;;;4966465;28;20138;-87
2021/08/15 12:20:42;;;;;;;13.45;5.50;;;;;;;;;;4957520;28;20043;-88
2021/08/15 12:23:09;;;;;;;27.38;5.40;;;;;;;;;;4955711;28;20133;-88
2021/08/15 12:25:36;;;;;;;11.20;4.97;;;;;;;;;;4954329;28;20559;-89
2021/08/15 12:28:09;;;;;;;15.43;5.28;;;;;;;;;;4951515;28;20055;-87
2021/08/15 12:30:37;;;;;;;16.80;5.95;;;;;;;;;;4948730;29;20061;-87
2021/08/15 12:33:25;;;;;;;13.20;5.28;;;;;;;;;;4960711;28;20061;-88
2021/08/15 12:36:13;;;;;;;11.90;4.90;;;;;;;;;;4951089;28;20093;-86
2021/08/15 12:38:48;;;;;;;14.38;5.32;;;;;;;;;;4955057;28;20051;-86
2021/08/15 12:41:25;;;;;;;12.77;5.30;;;;;;;;;;4954750;28;20125;-86
2021/08/15 12:44:13;;;;;;;13.27;5.32;;;;;;;;;;4948949;28;20058;-86
2021/08/15 12:46:41;;;;;;;12.60;5.63;;;;;;;;;;4940384;29;20113;-86
2021/08/15 12:49:18;;;;;;;12.43;5.07;;;;;;;;;;4950970;28;20063;-86
2021/08/15 12:52:06;;;;;;;11.80;4.80;;;;;;;;;;4972186;28;20043;-86
2021/08/15 12:54:33;;;;;;;10.68;4.97;;;;;;;;;;4947062;28;20122;-85
2021/08/15 12:57:01;;;;;;;18.70;5.47;;;;;;;;;;4967855;28;20043;-85
2021/08/15 12:59:28;;;;;;;13.63;4.63;;;;;;;;;;4963894;28;20924;-85
2021/08/15 13:01:55;;;;;;;14.52;5.68;;;;;;;;;;4936455;29;20051;-85
2021/08/15 13:04:23;;;;;;;13.20;5.03;;;;;;;;;;4958474;28;20134;-85
2021/08/15 13:06:54;;;;;;;12.00;5.00;;;;;;;;;;4947494;28;20510;-85
2021/08/15 13:09:21;;;;;;;12.48;5.00;;;;;;;;;;4953434;28;20131;-85
2021/08/15 13:11:50;;;;;;;11.23;4.45;;;;;;;;;;4971618;28;20751;-84
2021/08/15 13:14:18;;;;;;;10.27;5.32;;;;;;;;;;4951391;28;20393;-85
2021/08/15 13:16:47;;;;;;;10.25;4.28;;;;;;;;;;4949989;29;20559;-85
2021/08/15 13:19:15;;;;;;;12.20;4.90;;;;;;;;;;4948584;28;20047;-85
2021/08/15 13:21:42;;;;;;;11.32;4.70;;;;;;;;;;4935576;29;20107;-86
2021/08/15 13:24:09;;;;;;;11.88;4.63;;;;;;;;;;4961797;28;20134;-85
2021/08/15 13:26:42;;;;;;;12.73;4.65;;;;;;;;;;4944832;29;20122;-87
2021/08/15 13:29:09;;;;;;;8.98;4.05;;;;;;;;;;4951691;28;20130;-85
2021/08/15 13:31:37;;;;;;;8.90;4.75;;;;;;;;;;4954591;28;20129;-86
2021/08/15 13:34:05;;;;;;;12.35;4.68;;;;;;;;;;4969904;28;20128;-86
2021/08/15 13:36:32;;;;;;;10.40;3.97;;;;;;;;;;4947184;28;20130;-84
2021/08/15 13:38:59;;;;;;;15.10;5.57;;;;;;;;;;4972246;28;20077;-86
2021/08/15 13:41:27;;;;;;;13.02;4.68;;;;;;;;;;4973860;28;20051;-83
2021/08/15 13:43:59;;;;;;;11.50;4.82;;;;;;;;;;4969380;28;20451;-85
2021/08/15 13:46:26;;;;;;;8.18;4.25;;;;;;;;;;4953848;28;20554;-86
2021/08/15 13:49:05;;;;;;;12.00;4.70;;;;;;;;;;4958114;28;20050;-86
2021/08/15 13:51:32;;;;;;;9.70;4.05;;;;;;;;;;4958263;28;20134;-85
2021/08/15 13:54:01;;;;;;;11.80;4.13;;;;;;;;;;4949448;28;20146;-85
2021/08/15 13:56:29;;;;;;;8.80;3.97;;;;;;;;;;4970305;28;20137;-86
2021/08/15 13:59:15;;;;;;;11.52;5.35;;;;;;;;;;4956633;28;20047;-85
2021/08/15 14:01:42;;;;;;;14.00;4.68;;;;;;;;;;4973595;28;20067;-86
2021/08/15 14:04:10;;;;;;;8.82;4.57;;;;;;;;;;4965156;28;20502;-86
2021/08/15 14:06:41;;;;;;;37.47;7.88;;;;;;;;;;4953765;28;20436;-88
2021/08/15 14:09:10;;;;;;;11.55;4.57;;;;;;;;;;4955539;28;20086;-82
2021/08/15 14:11:37;;;;;;;20.58;4.88;;;;;;;;;;4954243;28;20134;-87
2021/08/15 14:14:05;;;;;;;12.70;4.07;;;;;;;;;;4952665;28;20063;-89
2021/08/15 14:16:33;;;;;;;14.48;4.05;;;;;;;;;;4956841;28;20043;-89
2021/08/15 14:19:03;;;;;;;12.18;4.65;;;;;;;;;;4947223;28;20054;-86
2021/08/15 14:21:32;;;;;;;11.25;4.93;;;;;;;;;;4965994;28;20206;-85
2021/08/15 14:24:04;;;;;;;15.57;4.53;;;;;;;;;;4952131;28;20142;-88
2021/08/15 14:26:38;;;;;;;9.27;4.68;;;;;;;;;;4969930;28;20051;-88
2021/08/15 14:29:29;;;;;;;11.63;4.00;;;;;;;;;;4953749;28;20051;-87
2021/08/15 14:32:00;;;;;;;7.72;4.00;;;;;;;;;;4957649;28;20055;-86
2021/08/15 14:34:28;;;;;;;9.27;3.80;;;;;;;;;;4971327;28;20090;-91
2021/08/15 14:36:58;;;;;;;11.23;4.03;;;;;;;;;;4948988;28;20581;-87
2021/08/15 14:39:25;;;;;;;10.30;4.32;;;;;;;;;;4971253;28;20050;-84
2021/08/15 14:42:01;;;;;;;11.35;3.95;;;;;;;;;;4952705;28;20093;-87
2021/08/15 14:44:28;;;;;;;;;;;;;;;;;;4965629;28;20085;-87
2021/08/15 14:46:55;;;;;;;12.57;4.30;;;;;;;;;;4952350;28;19965;-87
2021/08/15 14:49:24;;;;;;;10.30;4.07;;;;;;;;;;4941059;29;20043;-86
2021/08/15 14:51:51;;;;;;;10.55;4.28;;;;;;;;;;4948326;28;20487;-86
2021/08/15 14:54:19;;;;;;;6.53;3.83;;;;;;;;;;4939603;28;20047;-86